Terminal Aerodrome Forecast
Issued by NWS Boston, MA

Home | Current Version | Previous Version | Text Only | Print | Product List | Glossary On
Versions: 1 2 3 4 5 6 7 8 9 10 11 12 13 14 15 16 17 18 19 20 21 22 23 24 25 26 27 28 29 30 31 32 33 34 35 36 37 38 39 40 41 42 43 44 45 46 47 48 49 50
000
FTUS41 KBOX 282332
TAFBOS
TAF
KBOS 282332Z 2900/3006 36004KT 3SM -SN BR SCT015 OVC035
      TEMPO 2900/2902 BKN015 OVC035
     FM290200 33009KT 5SM -SN OVC040
     FM290400 33010KT P6SM OVC040
     FM291400 33006KT P6SM BKN250
     FM291700 26006KT P6SM SCT250
     FM292000 21007KT P6SM FEW200=

USA.gov is the U.S. government's official web portal to all federal, state and local government web resources and services.